Time;durP1;ratioP1;P1;durP2;ratioP2;P2;SDS_P1;SDS_P2;PMS_P1;PMS_P2;Temp;Humidity;BMP_temperature;BMP_pressure;BME280_temperature;BME280_humidity;BME280_pressure;Samples;Min_cycle;Max_cycle;Signal;HPM_P1;HPM_P2
2022/10/25 00:08:55;;;;;;;;;;;;;;;;;;6297737;22;19919;-83
2022/10/25 00:58:23;;;;;;;;;;;;;;;;;;6307480;22;20278;-88
2022/10/25 01:00:49;;;;;;;;;;;;;;;;;;6324828;22;20311;-87
2022/10/25 01:03:15;;;;;;;;;;;;;;;;;;6323393;22;20285;-87
2022/10/25 01:05:41;;;;;;;;;;;;;;;;;;6295263;22;20306;-87
2022/10/25 01:08:07;;;;;;;;;;;;;;;;;;6291942;22;19997;-88
2022/10/25 01:10:33;;;;;;;;;;;;;;;;;;6323670;22;19918;-88
2022/10/25 01:12:59;;;;;;;;;;;;;;;;;;6297659;22;19919;-87
2022/10/25 01:15:25;;;;;;;;;;;;;;;;;;6297653;22;20258;-87
2022/10/25 01:17:51;;;;;;;;;;;;;;;;;;6320859;22;20250;-88
2022/10/25 01:20:17;;;;;;;;;;;;;;;;;;6292408;22;20293;-88
2022/10/25 01:22:43;;;;;;;;;;;;;;;;;;6296824;22;19918;-87
2022/10/25 01:25:09;;;;;;;;;;;;;;;;;;6294923;22;19919;-87
2022/10/25 01:27:35;;;;;;;;;;;;;;;;;;6296109;22;19957;-87
2022/10/25 01:30:01;;;;;;;;;;;;;;;;;;6296162;22;19914;-87
2022/10/25 01:32:27;;;;;;;;;;;;;;;;;;6324069;22;19918;-87
2022/10/25 01:34:54;;;;;;;;;;;;;;;;;;6322225;22;19918;-87
2022/10/25 01:37:21;;;;;;;;;;;;;;;;;;6320201;22;20317;-87
2022/10/25 01:39:47;;;;;;;;;;;;;;;;;;6297745;22;20071;-87
2022/10/25 01:42:13;;;;;;;;;;;;;;;;;;6320557;22;20005;-87
2022/10/25 01:44:39;;;;;;;;;;;;;;;;;;6297049;22;20216;-87
2022/10/25 01:47:05;;;;;;;;;;;;;;;;;;6322123;22;20376;-87
2022/10/25 01:49:31;;;;;;;;;;;;;;;;;;6295815;22;19918;-87
2022/10/25 01:51:57;;;;;;;;;;;;;;;;;;6294658;22;20242;-88
2022/10/25 01:54:26;;;;;;;;;;;;;;;;;;6288866;22;19967;-87
2022/10/25 01:56:52;;;;;;;;;;;;;;;;;;6316666;22;19924;-87
2022/10/25 01:59:18;;;;;;;;;;;;;;;;;;6312557;22;19926;-87
2022/10/25 02:01:44;;;;;;;;;;;;;;;;;;6314386;22;19971;-87
2022/10/25 02:04:10;;;;;;;;;;;;;;;;;;6288450;22;19926;-88
2022/10/25 02:06:36;;;;;;;;;;;;;;;;;;6291949;22;19961;-88
2022/10/25 02:09:02;;;;;;;;;;;;;;;;;;6313047;22;19922;-87
2022/10/25 02:11:28;;;;;;;;;;;;;;;;;;6315472;22;19923;-87
2022/10/25 02:13:54;;;;;;;;;;;;;;;;;;6288550;22;20197;-88
2022/10/25 02:16:20;;;;;;;;;;;;;;;;;;6285813;22;19986;-88
2022/10/25 02:18:46;;;;;;;;;;;;;;;;;;6291216;22;20345;-88
2022/10/25 02:21:12;;;;;;;;;;;;;;;;;;6287733;22;19967;-88
2022/10/25 02:23:38;;;;;;;;;;;;;;;;;;6291980;22;19933;-89
2022/10/25 02:26:04;;;;;;;;;;;;;;;;;;6288469;22;20001;-88
2022/10/25 02:28:30;;;;;;;;;;;;;;;;;;6319722;22;19998;-88
2022/10/25 02:30:56;;;;;;;;;;;;;;;;;;6294263;22;19989;-88
2022/10/25 02:33:22;;;;;;;;;;;;;;;;;;6290035;22;19965;-88
2022/10/25 02:35:48;;;;;;;;;;;;;;;;;;6292491;22;19923;-88
2022/10/25 02:38:16;;;;;;;;;;;;;;;;;;6291499;22;19926;-88
2022/10/25 02:40:42;;;;;;;;;;;;;;;;;;6319938;22;20466;-88
2022/10/25 02:43:08;;;;;;;;;;;;;;;;;;6289319;22;20002;-88
2022/10/25 02:45:34;;;;;;;;;;;;;;;;;;6295993;22;20009;-88
2022/10/25 02:48:03;;;;;;;;;;;;;;;;;;6294250;22;20334;-88
2022/10/25 02:50:29;;;;;;;;;;;;;;;;;;6292284;22;20342;-88
2022/10/25 02:52:55;;;;;;;;;;;;;;;;;;6290998;22;19919;-88
2022/10/25 02:55:21;;;;;;;;;;;;;;;;;;6318085;22;20278;-88
2022/10/25 02:57:47;;;;;;;;;;;;;;;;;;6296189;22;19964;-88
2022/10/25 03:00:13;;;;;;;;;;;;;;;;;;6293714;22;19923;-88
2022/10/25 03:02:41;;;;;;;;;;;;;;;;;;6293052;22;19993;-89
2022/10/25 03:05:07;;;;;;;;;;;;;;;;;;6290917;22;19976;-88
2022/10/25 03:07:33;;;;;;;;;;;;;;;;;;6320783;22;19918;-89
2022/10/25 03:09:59;;;;;;;;;;;;;;;;;;6297080;22;20384;-87
2022/10/25 03:12:25;;;;;;;;;;;;;;;;;;6315717;22;20451;-87
2022/10/25 03:14:51;;;;;;;;;;;;;;;;;;6295509;22;20255;-87
2022/10/25 03:17:17;;;;;;;;;;;;;;;;;;6292993;22;20054;-87
2022/10/25 03:19:43;;;;;;;;;;;;;;;;;;6293790;22;19925;-88
2022/10/25 03:22:09;;;;;;;;;;;;;;;;;;6291208;22;19919;-88
2022/10/25 03:24:37;;;;;;;;;;;;;;;;;;6294993;22;19929;-87
2022/10/25 03:27:03;;;;;;;;;;;;;;;;;;6293070;22;19945;-87
2022/10/25 03:29:29;;;;;;;;;;;;;;;;;;6318608;22;19968;-87
2022/10/25 03:31:55;;;;;;;;;;;;;;;;;;6297627;22;20637;-86
2022/10/25 03:34:21;;;;;;;;;;;;;;;;;;6319583;22;20456;-87
2022/10/25 03:36:47;;;;;;;;;;;;;;;;;;6295229;22;19925;-87
2022/10/25 03:39:13;;;;;;;;;;;;;;;;;;6291872;22;19964;-87
2022/10/25 03:41:39;;;;;;;;;;;;;;;;;;6294925;22;19919;-87
2022/10/25 03:44:05;;;;;;;;;;;;;;;;;;6291020;22;19922;-87
2022/10/25 03:46:31;;;;;;;;;;;;;;;;;;6322406;22;20075;-87
2022/10/25 03:48:57;;;;;;;;;;;;;;;;;;6294016;22;19921;-87
2022/10/25 03:51:23;;;;;;;;;;;;;;;;;;6318193;22;20330;-87
2022/10/25 03:53:49;;;;;;;;;;;;;;;;;;6305516;22;19906;-88
2022/10/25 03:56:15;;;;;;;;;;;;;;;;;;6320458;22;19922;-87
2022/10/25 03:58:41;;;;;;;;;;;;;;;;;;6315416;22;19923;-87
2022/10/25 04:01:07;;;;;;;;;;;;;;;;;;6318243;22;19921;-87
2022/10/25 04:03:33;;;;;;;;;;;;;;;;;;6321047;22;19923;-88
2022/10/25 04:05:59;;;;;;;;;;;;;;;;;;6321961;22;19926;-87
2022/10/25 04:08:25;;;;;;;;;;;;;;;;;;6321100;22;19938;-88
2022/10/25 04:10:51;;;;;;;;;;;;;;;;;;6334744;22;19997;-87
2022/10/25 04:13:17;;;;;;;;;;;;;;;;;;6290777;22;19957;-87
2022/10/25 04:15:43;;;;;;;;;;;;;;;;;;6295112;22;20257;-87
2022/10/25 04:18:09;;;;;;;;;;;;;;;;;;6319969;22;19919;-87
2022/10/25 04:20:35;;;;;;;;;;;;;;;;;;6318681;22;19997;-87
2022/10/25 04:23:01;;;;;;;;;;;;;;;;;;6295360;22;20305;-87
2022/10/25 04:25:27;;;;;;;;;;;;;;;;;;6320137;22;19919;-88
2022/10/25 04:27:53;;;;;;;;;;;;;;;;;;6320598;22;19915;-87
2022/10/25 04:30:19;;;;;;;;;;;;;;;;;;6312981;22;19958;-88
2022/10/25 04:32:45;;;;;;;;;;;;;;;;;;6297472;22;19950;-87
2022/10/25 04:35:11;;;;;;;;;;;;;;;;;;6291755;22;19945;-87
2022/10/25 04:37:37;;;;;;;;;;;;;;;;;;6321432;22;19942;-87
2022/10/25 04:40:03;;;;;;;;;;;;;;;;;;6290165;22;20331;-87
2022/10/25 04:42:29;;;;;;;;;;;;;;;;;;6291942;22;20315;-87
2022/10/25 04:44:55;;;;;;;;;;;;;;;;;;6296043;22;19923;-87
2022/10/25 04:47:21;;;;;;;;;;;;;;;;;;6318955;22;20635;-88
2022/10/25 04:49:47;;;;;;;;;;;;;;;;;;6295452;22;20387;-88
2022/10/25 04:52:13;;;;;;;;;;;;;;;;;;6289594;22;19929;-87
2022/10/25 04:54:39;;;;;;;;;;;;;;;;;;6290279;22;20254;-87
2022/10/25 04:57:06;;;;;;;;;;;;;;;;;;6289803;22;19938;-88
2022/10/25 04:59:32;;;;;;;;;;;;;;;;;;6320215;22;20416;-88
2022/10/25 05:01:58;;;;;;;;;;;;;;;;;;6290655;22;20029;-88
2022/10/25 05:04:24;;;;;;;;;;;;;;;;;;6316119;22;19920;-89
2022/10/25 05:06:52;;;;;;;;;;;;;;;;;;6291660;22;20005;-89
2022/10/25 05:09:18;;;;;;;;;;;;;;;;;;6285734;22;20025;-88
2022/10/25 05:11:44;;;;;;;;;;;;;;;;;;6316196;22;20308;-88
2022/10/25 05:14:10;;;;;;;;;;;;;;;;;;6316033;22;19919;-88
2022/10/25 05:16:38;;;;;;;;;;;;;;;;;;6291842;22;19918;-88
2022/10/25 05:19:04;;;;;;;;;;;;;;;;;;6315484;22;20303;-87
2022/10/25 05:21:30;;;;;;;;;;;;;;;;;;6315533;22;20487;-88
2022/10/25 05:23:56;;;;;;;;;;;;;;;;;;6320684;22;20023;-88
2022/10/25 05:26:22;;;;;;;;;;;;;;;;;;6321697;22;20276;-88
2022/10/25 05:28:48;;;;;;;;;;;;;;;;;;6296997;22;19929;-88
2022/10/25 05:31:14;;;;;;;;;;;;;;;;;;6295759;22;19941;-88
2022/10/25 05:33:40;;;;;;;;;;;;;;;;;;6323375;22;20633;-88
2022/10/25 05:36:06;;;;;;;;;;;;;;;;;;6293108;22;19918;-88
2022/10/25 05:38:32;;;;;;;;;;;;;;;;;;6295832;22;20404;-88
2022/10/25 05:40:58;;;;;;;;;;;;;;;;;;6323940;22;19993;-88
2022/10/25 05:43:24;;;;;;;;;;;;;;;;;;6318726;22;19922;-88
2022/10/25 05:45:50;;;;;;;;;;;;;;;;;;6296307;22;20266;-89
2022/10/25 05:48:17;;;;;;;;;;;;;;;;;;6318144;22;19990;-88
2022/10/25 05:50:43;;;;;;;;;;;;;;;;;;6322072;22;19919;-88
2022/10/25 05:53:09;;;;;;;;;;;;;;;;;;6290346;22;19968;-88
2022/10/25 05:55:38;;;;;;;;;;;;;;;;;;6293695;22;19919;-89
2022/10/25 05:58:04;;;;;;;;;;;;;;;;;;6291796;22;19989;-88
2022/10/25 06:00:29;;;;;;;;;;;;;;;;;;6295229;22;19961;-88
2022/10/25 06:02:55;;;;;;;;;;;;;;;;;;6317002;22;19925;-88
2022/10/25 06:05:24;;;;;;;;;;;;;;;;;;6287276;22;19919;-89
2022/10/25 06:07:50;;;;;;;;;;;;;;;;;;6291758;22;19914;-87
2022/10/25 06:10:16;;;;;;;;;;;;;;;;;;6292305;22;20036;-88
2022/10/25 06:12:42;;;;;;;;;;;;;;;;;;6294722;22;19925;-88
2022/10/25 06:15:08;;;;;;;;;;;;;;;;;;6294239;22;19918;-88
2022/10/25 06:17:34;;;;;;;;;;;;;;;;;;6293034;22;19925;-88
2022/10/25 06:20:03;;;;;;;;;;;;;;;;;;6296990;22;19925;-87
2022/10/25 06:22:32;;;;;;;;;;;;;;;;;;6298278;22;19960;-87
2022/10/25 06:24:58;;;;;;;;;;;;;;;;;;6299732;22;20373;-88
2022/10/25 06:27:24;;;;;;;;;;;;;;;;;;6296812;22;19925;-87
2022/10/25 06:29:50;;;;;;;;;;;;;;;;;;6300689;22;19915;-88
2022/10/25 06:32:16;;;;;;;;;;;;;;;;;;6296632;22;19985;-87
2022/10/25 06:34:42;;;;;;;;;;;;;;;;;;6298682;22;19949;-87
2022/10/25 06:37:08;;;;;;;;;;;;;;;;;;6321797;22;20339;-87
2022/10/25 06:39:34;;;;;;;;;;;;;;;;;;6300433;22;19918;-87
2022/10/25 06:42:03;;;;;;;;;;;;;;;;;;6298838;22;19941;-88
2022/10/25 06:44:29;;;;;;;;;;;;;;;;;;6323887;22;19923;-87
2022/10/25 06:46:55;;;;;;;;;;;;;;;;;;6298492;22;19925;-88
2022/10/25 06:49:21;;;;;;;;;;;;;;;;;;6295520;22;20423;-88
2022/10/25 06:51:49;;;;;;;;;;;;;;;;;;6303289;22;19919;-87
2022/10/25 06:54:15;;;;;;;;;;;;;;;;;;6299456;22;19926;-88
2022/10/25 06:56:41;;;;;;;;;;;;;;;;;;6326499;22;19925;-88
2022/10/25 06:59:07;;;;;;;;;;;;;;;;;;6298871;22;20471;-88
2022/10/25 07:01:33;;;;;;;;;;;;;;;;;;6326412;22;20027;-88
2022/10/25 07:03:59;;;;;;;;;;;;;;;;;;6328110;22;19964;-88
2022/10/25 07:06:28;;;;;;;;;;;;;;;;;;6299605;22;19918;-89
2022/10/25 07:08:54;;;;;;;;;;;;;;;;;;6321674;22;19918;-89
2022/10/25 07:11:20;;;;;;;;;;;;;;;;;;6292742;22;19930;-88
2022/10/25 07:13:46;;;;;;;;;;;;;;;;;;6326735;22;19968;-88
2022/10/25 07:16:12;;;;;;;;;;;;;;;;;;6300226;22;20401;-88
2022/10/25 07:18:38;;;;;;;;;;;;;;;;;;6300500;22;19922;-88
2022/10/25 07:21:04;;;;;;;;;;;;;;;;;;6297566;22;20376;-88
2022/10/25 07:23:30;;;;;;;;;;;;;;;;;;6327538;22;19919;-89
2022/10/25 07:25:56;;;;;;;;;;;;;;;;;;6302580;22;19914;-88
2022/10/25 07:28:22;;;;;;;;;;;;;;;;;;6298947;22;20310;-88
2022/10/25 07:30:48;;;;;;;;;;;;;;;;;;6302198;22;19922;-88
2022/10/25 07:33:14;;;;;;;;;;;;;;;;;;6300516;22;19914;-89
2022/10/25 07:35:40;;;;;;;;;;;;;;;;;;6328663;22;19918;-88
2022/10/25 07:38:06;;;;;;;;;;;;;;;;;;6325566;22;19926;-88
2022/10/25 07:40:32;;;;;;;;;;;;;;;;;;6302712;22;19980;-88
2022/10/25 07:42:58;;;;;;;;;;;;;;;;;;6300722;22;19967;-89
2022/10/25 07:45:24;;;;;;;;;;;;;;;;;;6298191;22;19918;-89
2022/10/25 07:47:52;;;;;;;;;;;;;;;;;;6328040;22;19950;-89
2022/10/25 07:50:18;;;;;;;;;;;;;;;;;;6300008;22;19971;-90
2022/10/25 07:52:44;;;;;;;;;;;;;;;;;;6302079;22;19914;-89
2022/10/25 07:55:10;;;;;;;;;;;;;;;;;;6298325;22;20337;-89
2022/10/25 07:57:36;;;;;;;;;;;;;;;;;;6302340;22;19919;-89
2022/10/25 08:00:02;;;;;;;;;;;;;;;;;;6298196;22;20254;-89
2022/10/25 08:02:28;;;;;;;;;;;;;;;;;;6326463;22;19923;-89
2022/10/25 08:04:54;;;;;;;;;;;;;;;;;;6301992;22;19918;-89
2022/10/25 08:07:20;;;;;;;;;;;;;;;;;;6300130;22;19918;-89
2022/10/25 08:09:46;;;;;;;;;;;;;;;;;;6301267;22;19918;-89
2022/10/25 08:12:12;;;;;;;;;;;;;;;;;;6298522;22;20351;-89
2022/10/25 08:14:38;;;;;;;;;;;;;;;;;;6302222;22;20418;-89
2022/10/25 08:17:04;;;;;;;;;;;;;;;;;;6326806;22;19967;-89
2022/10/25 08:19:30;;;;;;;;;;;;;;;;;;6301646;22;19925;-89
2022/10/25 08:21:56;;;;;;;;;;;;;;;;;;6328920;22;19921;-89
2022/10/25 08:24:22;;;;;;;;;;;;;;;;;;6299972;22;20252;-89
2022/10/25 08:26:48;;;;;;;;;;;;;;;;;;6302611;22;19923;-89
2022/10/25 08:29:14;;;;;;;;;;;;;;;;;;6298781;22;20345;-89
2022/10/25 08:31:40;;;;;;;;;;;;;;;;;;6327678;22;19989;-89
2022/10/25 08:34:06;;;;;;;;;;;;;;;;;;6298978;22;19918;-89
2022/10/25 08:36:32;;;;;;;;;;;;;;;;;;6327073;22;19925;-89
2022/10/25 08:38:58;;;;;;;;;;;;;;;;;;6300877;22;20240;-90
2022/10/25 08:41:24;;;;;;;;;;;;;;;;;;6302321;22;19918;-89
2022/10/25 08:43:53;;;;;;;;;;;;;;;;;;6314749;22;20000;-89
2022/10/25 08:46:19;;;;;;;;;;;;;;;;;;6338747;22;19924;-90
2022/10/25 08:48:45;;;;;;;;;;;;;;;;;;6328082;22;19989;-88
2022/10/25 08:51:11;;;;;;;;;;;;;;;;;;6325910;22;19915;-88
2022/10/25 08:53:37;;;;;;;;;;;;;;;;;;6324466;22;19942;-88
2022/10/25 08:56:03;;;;;;;;;;;;;;;;;;6327041;22;19922;-88
2022/10/25 08:58:29;;;;;;;;;;;;;;;;;;6320070;22;19923;-88
2022/10/25 09:00:55;;;;;;;;;;;;;;;;;;6299350;22;20252;-88
2022/10/25 09:03:24;;;;;;;;;;;;;;;;;;6296296;22;20454;-88
2022/10/25 09:05:50;;;;;;;;;;;;;;;;;;6301965;22;19925;-88
2022/10/25 09:08:16;;;;;;;;;;;;;;;;;;6323782;22;20438;-89
2022/10/25 09:10:42;;;;;;;;;;;;;;;;;;6300942;22;19951;-88
2022/10/25 09:13:08;;;;;;;;;;;;;;;;;;6296744;22;19918;-89
2022/10/25 09:15:36;;;;;;;;;;;;;;;;;;6298883;22;19919;-89
2022/10/25 09:18:04;;;;;;;;;;;;;;;;;;6297132;22;19915;-88
2022/10/25 09:20:29;;;;;;;;;;;;;;;;;;6325991;22;20283;-88
2022/10/25 09:22:55;;;;;;;;;;;;;;;;;;6300440;22;19914;-88
2022/10/25 09:25:24;;;;;;;;;;;;;;;;;;6298928;22;20437;-88
2022/10/25 09:27:53;;;;;;;;;;;;;;;;;;6300739;22;20001;-89
2022/10/25 09:30:26;;;;;;;;;;;;;;;;;;6324922;22;19915;-88
2022/10/25 09:32:52;;;;;;;;;;;;;;;;;;6299937;22;19922;-89
2022/10/25 09:35:21;;;;;;;;;;;;;;;;;;6296072;22;19925;-88
2022/10/25 09:37:47;;;;;;;;;;;;;;;;;;6301439;22;19989;-88
2022/10/25 09:40:15;;;;;;;;;;;;;;;;;;6322296;22;19960;-88
2022/10/25 09:42:41;;;;;;;;;;;;;;;;;;6326550;22;19914;-89
2022/10/25 09:45:07;;;;;;;;;;;;;;;;;;6298452;22;19918;-88
2022/10/25 09:47:33;;;;;;;;;;;;;;;;;;6298796;22;20335;-88
2022/10/25 09:49:59;;;;;;;;;;;;;;;;;;6326990;22;19919;-88
2022/10/25 09:52:25;;;;;;;;;;;;;;;;;;6323276;22;19961;-89
2022/10/25 09:54:54;;;;;;;;;;;;;;;;;;6326014;22;19971;-89
2022/10/25 09:57:23;;;;;;;;;;;;;;;;;;6298624;22;20311;-88
2022/10/25 09:59:49;;;;;;;;;;;;;;;;;;6300437;22;19915;-89
2022/10/25 10:02:15;;;;;;;;;;;;;;;;;;6295948;22;19922;-89
2022/10/25 10:04:41;;;;;;;;;;;;;;;;;;6326516;22;19918;-88
2022/10/25 10:07:09;;;;;;;;;;;;;;;;;;6297626;22;19918;-89
2022/10/25 10:09:38;;;;;;;;;;;;;;;;;;6326001;22;20332;-88
2022/10/25 10:12:05;;;;;;;;;;;;;;;;;;6297276;22;19929;-88
2022/10/25 10:14:31;;;;;;;;;;;;;;;;;;6299194;22;20339;-89
2022/10/25 10:16:57;;;;;;;;;;;;;;;;;;6301564;22;19922;-89
2022/10/25 10:19:23;;;;;;;;;;;;;;;;;;6323578;22;19924;-89
2022/10/25 10:21:49;;;;;;;;;;;;;;;;;;6300707;22;19937;-88
2022/10/25 10:24:15;;;;;;;;;;;;;;;;;;6298784;22;20335;-88
2022/10/25 10:26:41;;;;;;;;;;;;;;;;;;6301944;22;19926;-89
2022/10/25 10:29:07;;;;;;;;;;;;;;;;;;6327542;22;20293;-88
2022/10/25 10:31:33;;;;;;;;;;;;;;;;;;6303237;22;19926;-88
2022/10/25 10:33:59;;;;;;;;;;;;;;;;;;6304138;22;20323;-89
2022/10/25 10:36:25;;;;;;;;;;;;;;;;;;6298022;22;19950;-88
2022/10/25 10:38:51;;;;;;;;;;;;;;;;;;6301987;22;20392;-89
2022/10/25 10:41:24;;;;;;;;;;;;;;;;;;6298159;22;19988;-89
2022/10/25 10:43:50;;;;;;;;;;;;;;;;;;6328743;22;19989;-88
2022/10/25 10:46:16;;;;;;;;;;;;;;;;;;6327199;22;19958;-88
2022/10/25 10:48:45;;;;;;;;;;;;;;;;;;6302068;22;19918;-89
2022/10/25 10:51:11;;;;;;;;;;;;;;;;;;6326649;22;19972;-89
2022/10/25 10:53:37;;;;;;;;;;;;;;;;;;6298938;22;19918;-89
2022/10/25 10:56:03;;;;;;;;;;;;;;;;;;6299441;22;19972;-89
2022/10/25 10:58:29;;;;;;;;;;;;;;;;;;6301160;22;20250;-89
2022/10/25 11:00:55;;;;;;;;;;;;;;;;;;6327576;22;19922;-89
2022/10/25 11:03:24;;;;;;;;;;;;;;;;;;6325044;22;20332;-89
2022/10/25 11:05:50;;;;;;;;;;;;;;;;;;6328817;22;19922;-89
2022/10/25 11:08:16;;;;;;;;;;;;;;;;;;6298598;22;20347;-89
2022/10/25 11:10:42;;;;;;;;;;;;;;;;;;6301904;22;19926;-89
2022/10/25 11:13:08;;;;;;;;;;;;;;;;;;6298659;22;19922;-88
2022/10/25 11:15:34;;;;;;;;;;;;;;;;;;6329692;22;19918;-90
2022/10/25 11:18:03;;;;;;;;;;;;;;;;;;6301763;22;20103;-89
2022/10/25 11:20:32;;;;;;;;;;;;;;;;;;6302642;22;19985;-89
2022/10/25 11:22:58;;;;;;;;;;;;;;;;;;6327563;22;19923;-89
2022/10/25 11:25:24;;;;;;;;;;;;;;;;;;6299943;22;19921;-89
2022/10/25 11:27:50;;;;;;;;;;;;;;;;;;6303838;22;20240;-88
2022/10/25 11:30:16;;;;;;;;;;;;;;;;;;6325647;22;19938;-89
2022/10/25 11:32:42;;;;;;;;;;;;;;;;;;6303377;22;19923;-89
2022/10/25 11:35:08;;;;;;;;;;;;;;;;;;6298857;22;20351;-89
2022/10/25 11:37:34;;;;;;;;;;;;;;;;;;6301883;22;19918;-89
2022/10/25 11:40:03;;;;;;;;;;;;;;;;;;6300265;22;20039;-89
2022/10/25 11:42:29;;;;;;;;;;;;;;;;;;6301573;22;20326;-89
2022/10/25 11:44:55;;;;;;;;;;;;;;;;;;6301063;22;20350;-89
2022/10/25 11:47:23;;;;;;;;;;;;;;;;;;6298141;22;20290;-88
2022/10/25 11:49:49;;;;;;;;;;;;;;;;;;6299786;22;20012;-89
2022/10/25 11:52:15;;;;;;;;;;;;;;;;;;6297864;22;19915;-89
2022/10/25 11:54:41;;;;;;;;;;;;;;;;;;6301391;22;19921;-89
2022/10/25 11:57:07;;;;;;;;;;;;;;;;;;6298704;22;19946;-89
2022/10/25 11:59:33;;;;;;;;;;;;;;;;;;6300846;22;20358;-88
2022/10/25 12:02:01;;;;;;;;;;;;;;;;;;6325980;22;19923;-88
2022/10/25 12:04:27;;;;;;;;;;;;;;;;;;6327580;22;20358;-88
2022/10/25 12:06:56;;;;;;;;;;;;;;;;;;6326598;22;19918;-89
2022/10/25 12:09:22;;;;;;;;;;;;;;;;;;6298387;22;20122;-89
2022/10/25 12:11:48;;;;;;;;;;;;;;;;;;6302345;22;19930;-89
2022/10/25 12:14:15;;;;;;;;;;;;;;;;;;6299925;22;20223;-89
2022/10/25 12:16:41;;;;;;;;;;;;;;;;;;6326981;22;20357;-89
2022/10/25 12:19:07;;;;;;;;;;;;;;;;;;6299592;22;19954;-89
2022/10/25 12:21:33;;;;;;;;;;;;;;;;;;6301502;22;19915;-89
2022/10/25 12:24:04;;;;;;;;;;;;;;;;;;6298905;22;19919;-89
2022/10/25 12:26:30;;;;;;;;;;;;;;;;;;6329299;22;19922;-89
2022/10/25 12:28:59;;;;;;;;;;;;;;;;;;6302501;22;19924;-89
2022/10/25 12:31:25;;;;;;;;;;;;;;;;;;6323080;22;19919;-89
2022/10/25 12:33:51;;;;;;;;;;;;;;;;;;6301456;22;19915;-89
2022/10/25 12:36:17;;;;;;;;;;;;;;;;;;6322758;22;19925;-90
2022/10/25 12:38:43;;;;;;;;;;;;;;;;;;6323282;22;19902;-89
2022/10/25 12:41:09;;;;;;;;;;;;;;;;;;6301201;22;20511;-89
2022/10/25 12:43:35;;;;;;;;;;;;;;;;;;6298669;22;19925;-89
2022/10/25 12:46:06;;;;;;;;;;;;;;;;;;6296818;22;19929;-90
2022/10/25 12:48:32;;;;;;;;;;;;;;;;;;6300911;22;19989;-90
2022/10/25 12:50:58;;;;;;;;;;;;;;;;;;6300975;22;19926;-89
2022/10/25 12:53:24;;;;;;;;;;;;;;;;;;6298142;22;19914;-90
2022/10/25 12:55:50;;;;;;;;;;;;;;;;;;6327536;22;19915;-91
2022/10/25 12:58:16;;;;;;;;;;;;;;;;;;6323839;22;20340;-90
2022/10/25 13:00:44;;;;;;;;;;;;;;;;;;6299475;22;19922;-90
2022/10/25 13:03:10;;;;;;;;;;;;;;;;;;6297000;22;20320;-90
2022/10/25 13:05:36;;;;;;;;;;;;;;;;;;6298192;22;19923;-88
2022/10/25 13:08:05;;;;;;;;;;;;;;;;;;6298004;22;19957;-89
2022/10/25 13:10:31;;;;;;;;;;;;;;;;;;6324325;22;19985;-90
2022/10/25 13:12:57;;;;;;;;;;;;;;;;;;6298532;22;19918;-89
2022/10/25 13:15:23;;;;;;;;;;;;;;;;;;6323241;22;20271;-90
2022/10/25 13:17:52;;;;;;;;;;;;;;;;;;6325437;22;19967;-90
2022/10/25 13:20:35;;;;;;;;;;;;;;;;;;6295170;22;19922;-89
2022/10/25 13:23:01;;;;;;;;;;;;;;;;;;6321780;22;20262;-89
2022/10/25 13:25:27;;;;;;;;;;;;;;;;;;6299708;22;20320;-89
2022/10/25 13:27:56;;;;;;;;;;;;;;;;;;6300668;22;19946;-89
2022/10/25 13:30:22;;;;;;;;;;;;;;;;;;6332278;22;20283;-89
2022/10/25 13:32:51;;;;;;;;;;;;;;;;;;6304850;22;20021;-89
2022/10/25 13:35:19;;;;;;;;;;;;;;;;;;6305966;22;20344;-89
2022/10/25 13:37:45;;;;;;;;;;;;;;;;;;6328606;22;20343;-89
2022/10/25 13:40:11;;;;;;;;;;;;;;;;;;6307722;22;19915;-90
2022/10/25 13:42:40;;;;;;;;;;;;;;;;;;6314220;22;19909;-89
2022/10/25 13:45:06;;;;;;;;;;;;;;;;;;6333823;22;19925;-88
2022/10/25 13:47:32;;;;;;;;;;;;;;;;;;6325875;22;20346;-89
2022/10/25 13:49:58;;;;;;;;;;;;;;;;;;6299854;22;19922;-88
2022/10/25 13:52:24;;;;;;;;;;;;;;;;;;6299257;22;20284;-90
2022/10/25 13:54:53;;;;;;;;;;;;;;;;;;6298275;22;20348;-89
2022/10/25 13:57:19;;;;;;;;;;;;;;;;;;6298053;22;20315;-89
2022/10/25 13:59:50;;;;;;;;;;;;;;;;;;6195592;22;2099512;-89
2022/10/25 14:02:19;;;;;;;;;;;;;;;;;;6266487;22;19919;-89
2022/10/25 14:04:48;;;;;;;;;;;;;;;;;;6270374;22;19919;-90
2022/10/25 14:07:14;;;;;;;;;;;;;;;;;;6268148;22;20248;-89
2022/10/25 14:09:42;;;;;;;;;;;;;;;;;;6293650;22;19925;-89
2022/10/25 14:12:11;;;;;;;;;;;;;;;;;;6293223;22;19919;-90
2022/10/25 14:14:40;;;;;;;;;;;;;;;;;;6293409;22;20013;-89
2022/10/25 14:17:09;;;;;;;;;;;;;;;;;;6266383;22;19941;-88
2022/10/25 14:19:35;;;;;;;;;;;;;;;;;;6267753;22;19922;-88
2022/10/25 14:22:04;;;;;;;;;;;;;;;;;;6267776;22;19937;-88
2022/10/25 14:24:30;;;;;;;;;;;;;;;;;;6268709;22;19922;-88
2022/10/25 14:35:47;;;;;;;;;;;;;;;;;;;;;
2022/10/25 14:42:03;;;;;;;;;;;;;;;;;;;;;
2022/10/25 14:44:41;;;;;;;;;;;;;;;;;;6230821;23;19930;-89
2022/10/25 14:47:46;;;;;;;;;;;;;;;;;;6179043;23;19987;-89
2022/10/25 14:50:43;;;;;;;;;;;;;;;;;;;;;
2022/10/25 14:59:27;;;;;;;;;;;;;;;;;;6037561;23;20258;-89
2022/10/25 15:05:41;;;;;;;;;;;;;;;;;;;;;
2022/10/25 15:11:49;;;;;;;;;;;;;;;;;;;;;
2022/10/25 16:54:06;;;;;;;;;;;;;;;;;;6300471;22;19927;-90
2022/10/25 16:56:35;;;;;;;;;;;;;;;;;;6317183;22;19950;-89
2022/10/25 16:59:07;;;;;;;;;;;;;;;;;;6296023;22;19921;-90
2022/10/25 17:24:01;;;;;;;;;;;;;;;;;;5967900;23;20000;-88
2022/10/25 17:26:27;;;;;;;;;;;;;;;;;;6127805;23;19924;-89
2022/10/25 17:29:02;;;;;;;;;;;;;;;;;;6158015;23;19922;-89
2022/10/25 17:31:31;;;;;;;;;;;;;;;;;;6196960;23;19915;-89
2022/10/25 17:33:57;;;;;;;;;;;;;;;;;;6172057;23;19958;-89
2022/10/25 17:42:31;;;;;;;;;;;;;;;;;;6327602;22;20305;-88
2022/10/25 17:45:07;;;;;;;;;;;;;;;;;;;;;
2022/10/25 17:48:09;;;;;;;;;;;;;;;;;;;;;
2022/10/25 17:51:22;;;;;;;;;;;;;;;;;;6229052;23;20057;-89
2022/10/25 17:54:27;;;;;;;;;;;;;;;;;;6238419;22;20181;-89
2022/10/25 18:03:30;;;;;;;;;;;;;;;;;;6151611;23;19955;-88
2022/10/25 18:06:10;;;;;;;;;;;;;;;;;;6173205;23;20014;-88
2022/10/25 18:11:54;;;;;;;;;;;;;;;;;;6233607;23;19919;-89
2022/10/25 18:14:27;;;;;;;;;;;;;;;;;;6169591;23;19920;-88
2022/10/25 18:17:00;;;;;;;;;;;;;;;;;;6200742;23;19919;-88
2022/10/25 18:19:29;;;;;;;;;;;;;;;;;;6171483;23;20338;-88
2022/10/25 18:21:59;;;;;;;;;;;;;;;;;;6176967;23;19947;-88
2022/10/25 18:24:27;;;;;;;;;;;;;;;;;;6171933;23;19928;-89
2022/10/25 18:26:54;;;;;;;;;;;;;;;;;;6181575;22;19919;-89
2022/10/25 18:29:21;;;;;;;;;;;;;;;;;;6233178;22;20376;-89
2022/10/25 18:31:50;;;;;;;;;;;;;;;;;;6261355;22;19918;-89
2022/10/25 18:34:16;;;;;;;;;;;;;;;;;;6265885;22;20025;-89
2022/10/25 18:36:45;;;;;;;;;;;;;;;;;;6267511;22;19964;-88
2022/10/25 18:39:11;;;;;;;;;;;;;;;;;;6261564;22;19925;-88
2022/10/25 18:41:39;;;;;;;;;;;;;;;;;;6266521;22;20259;-88
2022/10/25 18:44:07;;;;;;;;;;;;;;;;;;6290681;22;19997;-88
2022/10/25 18:46:39;;;;;;;;;;;;;;;;;;6267954;22;19922;-88
2022/10/25 18:49:06;;;;;;;;;;;;;;;;;;6262736;22;20474;-88
2022/10/25 18:51:33;;;;;;;;;;;;;;;;;;6266436;22;20269;-88
2022/10/25 18:54:08;;;;;;;;;;;;;;;;;;6266716;22;20247;-88
2022/10/25 18:56:35;;;;;;;;;;;;;;;;;;6269965;22;19918;-89
2022/10/25 18:59:01;;;;;;;;;;;;;;;;;;6268782;22;19922;-87
2022/10/25 19:01:31;;;;;;;;;;;;;;;;;;6271970;22;19926;-88
2022/10/25 19:03:57;;;;;;;;;;;;;;;;;;6267990;22;19918;-89
2022/10/25 19:06:30;;;;;;;;;;;;;;;;;;6265937;22;20136;-88
2022/10/25 19:08:57;;;;;;;;;;;;;;;;;;6269191;22;20452;-88
2022/10/25 19:11:23;;;;;;;;;;;;;;;;;;6292391;22;19918;-88
2022/10/25 19:13:50;;;;;;;;;;;;;;;;;;6269096;22;19990;-89
2022/10/25 19:16:20;;;;;;;;;;;;;;;;;;6263808;22;19918;-89
2022/10/25 19:18:47;;;;;;;;;;;;;;;;;;6268178;22;20123;-88
2022/10/25 19:21:18;;;;;;;;;;;;;;;;;;6266356;22;19923;-88
2022/10/25 19:23:53;;;;;;;;;;;;;;;;;;6292616;22;20307;-88
2022/10/25 19:26:19;;;;;;;;;;;;;;;;;;6286983;22;20187;-88
2022/10/25 19:28:45;;;;;;;;;;;;;;;;;;6266790;22;19950;-89
2022/10/25 19:31:11;;;;;;;;;;;;;;;;;;6264221;22;19960;-88
2022/10/25 19:33:39;;;;;;;;;;;;;;;;;;6266761;22;20205;-89
2022/10/25 19:36:06;;;;;;;;;;;;;;;;;;6266967;22;20211;-88
2022/10/25 19:38:32;;;;;;;;;;;;;;;;;;6273294;22;19918;-88
2022/10/25 19:41:00;;;;;;;;;;;;;;;;;;6272753;22;19919;-88
2022/10/25 19:43:27;;;;;;;;;;;;;;;;;;6299073;22;19918;-88
2022/10/25 19:45:55;;;;;;;;;;;;;;;;;;6275162;22;20435;-89
2022/10/25 19:48:24;;;;;;;;;;;;;;;;;;6270162;22;20772;-89
2022/10/25 19:50:51;;;;;;;;;;;;;;;;;;6295008;22;19943;-88
2022/10/25 19:53:19;;;;;;;;;;;;;;;;;;6265840;22;19922;-89
2022/10/25 19:55:46;;;;;;;;;;;;;;;;;;6287311;22;19929;-88
2022/10/25 19:58:12;;;;;;;;;;;;;;;;;;6261818;22;19990;-88
2022/10/25 20:00:38;;;;;;;;;;;;;;;;;;6265905;22;19933;-88
2022/10/25 20:03:06;;;;;;;;;;;;;;;;;;6264766;22;20221;-88
2022/10/25 20:05:33;;;;;;;;;;;;;;;;;;6292017;22;19963;-88
2022/10/25 20:07:59;;;;;;;;;;;;;;;;;;6264808;22;20282;-88
2022/10/25 20:10:24;;;;;;;;;;;;;;;;;;6264235;22;19919;-88
2022/10/25 20:12:50;;;;;;;;;;;;;;;;;;6290077;22;19967;-88
2022/10/25 20:15:19;;;;;;;;;;;;;;;;;;6261722;22;19922;-88
2022/10/25 20:17:45;;;;;;;;;;;;;;;;;;6266338;22;19918;-88
2022/10/25 20:20:11;;;;;;;;;;;;;;;;;;6286496;22;20464;-88
2022/10/25 20:22:37;;;;;;;;;;;;;;;;;;6259103;22;20253;-88
2022/10/25 20:25:06;;;;;;;;;;;;;;;;;;6252849;22;19918;-88
2022/10/25 20:27:34;;;;;;;;;;;;;;;;;;6220390;22;20274;-89
2022/10/25 20:30:03;;;;;;;;;;;;;;;;;;6254570;22;19929;-88